sensor_id;sensor_type;location;lat;lon;timestamp;pressure;altitude;pressure_sealevel;temperature
73894;BMP280;62699;50.534;12.784;2024-03-29T00:01:20;94852.00;;;3.61
73894;BMP280;62699;50.534;12.784;2024-03-29T00:06:20;94853.38;;;3.51
73894;BMP280;62699;50.534;12.784;2024-03-29T00:11:21;94867.84;;;3.38
73894;BMP280;62699;50.534;12.784;2024-03-29T00:16:21;94868.28;;;3.31
73894;BMP280;62699;50.534;12.784;2024-03-29T00:21:24;94875.50;;;3.20
73894;BMP280;62699;50.534;12.784;2024-03-29T00:26:25;94878.84;;;3.15
73894;BMP280;62699;50.534;12.784;2024-03-29T00:31:25;94890.88;;;3.10
73894;BMP280;62699;50.534;12.784;2024-03-29T00:36:25;94902.47;;;3.07
73894;BMP280;62699;50.534;12.784;2024-03-29T00:41:25;94900.53;;;3.08
73894;BMP280;62699;50.534;12.784;2024-03-29T00:46:25;94905.22;;;3.18
73894;BMP280;62699;50.534;12.784;2024-03-29T00:51:26;94904.66;;;3.09
73894;BMP280;62699;50.534;12.784;2024-03-29T00:56:26;94902.63;;;2.92
73894;BMP280;62699;50.534;12.784;2024-03-29T01:01:27;94899.16;;;2.86
73894;BMP280;62699;50.534;12.784;2024-03-29T01:06:27;94900.78;;;2.78
73894;BMP280;62699;50.534;12.784;2024-03-29T01:11:27;94881.00;;;2.79
73894;BMP280;62699;50.534;12.784;2024-03-29T01:16:28;94878.22;;;2.94
73894;BMP280;62699;50.534;12.784;2024-03-29T01:21:28;94875.03;;;3.21
73894;BMP280;62699;50.534;12.784;2024-03-29T01:26:28;94870.66;;;3.18
73894;BMP280;62699;50.534;12.784;2024-03-29T01:31:29;94866.66;;;3.39
73894;BMP280;62699;50.534;12.784;2024-03-29T01:36:29;94868.94;;;3.15
73894;BMP280;62699;50.534;12.784;2024-03-29T01:41:29;94872.41;;;3.86
73894;BMP280;62699;50.534;12.784;2024-03-29T01:46:31;94868.53;;;3.98
73894;BMP280;62699;50.534;12.784;2024-03-29T01:51:37;94866.41;;;4.08
73894;BMP280;62699;50.534;12.784;2024-03-29T01:56:39;94870.97;;;3.85
73894;BMP280;62699;50.534;12.784;2024-03-29T02:01:40;94868.91;;;3.58
73894;BMP280;62699;50.534;12.784;2024-03-29T02:06:41;94876.59;;;3.50
73894;BMP280;62699;50.534;12.784;2024-03-29T02:11:41;94875.53;;;3.25
73894;BMP280;62699;50.534;12.784;2024-03-29T02:16:42;94872.28;;;3.10
73894;BMP280;62699;50.534;12.784;2024-03-29T02:21:45;94870.81;;;3.09
73894;BMP280;62699;50.534;12.784;2024-03-29T02:26:48;94884.38;;;3.11
73894;BMP280;62699;50.534;12.784;2024-03-29T02:31:49;94883.38;;;3.09
73894;BMP280;62699;50.534;12.784;2024-03-29T02:36:49;94879.91;;;2.91
73894;BMP280;62699;50.534;12.784;2024-03-29T02:41:50;94890.53;;;2.91
73894;BMP280;62699;50.534;12.784;2024-03-29T02:46:50;94880.34;;;2.84
73894;BMP280;62699;50.534;12.784;2024-03-29T02:51:50;94886.88;;;2.89
73894;BMP280;62699;50.534;12.784;2024-03-29T02:56:52;94876.25;;;2.89
73894;BMP280;62699;50.534;12.784;2024-03-29T03:01:53;94876.34;;;3.05
73894;BMP280;62699;50.534;12.784;2024-03-29T03:06:53;94867.97;;;3.13
73894;BMP280;62699;50.534;12.784;2024-03-29T03:11:55;94852.03;;;3.18
73894;BMP280;62699;50.534;12.784;2024-03-29T03:16:56;94871.47;;;3.35
73894;BMP280;62699;50.534;12.784;2024-03-29T03:21:56;94849.06;;;3.59
73894;BMP280;62699;50.534;12.784;2024-03-29T03:26:56;94836.16;;;4.05
73894;BMP280;62699;50.534;12.784;2024-03-29T03:31:56;94856.94;;;4.01
73894;BMP280;62699;50.534;12.784;2024-03-29T03:36:57;94875.16;;;4.14
73894;BMP280;62699;50.534;12.784;2024-03-29T03:41:57;94878.34;;;4.68
73894;BMP280;62699;50.534;12.784;2024-03-29T03:46:57;94858.47;;;4.86
73894;BMP280;62699;50.534;12.784;2024-03-29T03:51:58;94839.81;;;4.75
73894;BMP280;62699;50.534;12.784;2024-03-29T03:56:58;94838.16;;;4.66
73894;BMP280;62699;50.534;12.784;2024-03-29T04:01:58;94849.25;;;4.59
73894;BMP280;62699;50.534;12.784;2024-03-29T04:06:58;94831.84;;;4.63
73894;BMP280;62699;50.534;12.784;2024-03-29T04:11:58;94823.13;;;4.63
73894;BMP280;62699;50.534;12.784;2024-03-29T04:16:59;94796.72;;;4.65
73894;BMP280;62699;50.534;12.784;2024-03-29T04:21:59;94793.31;;;4.59
73894;BMP280;62699;50.534;12.784;2024-03-29T04:26:59;94806.88;;;4.55
73894;BMP280;62699;50.534;12.784;2024-03-29T04:32:05;94803.50;;;4.55
73894;BMP280;62699;50.534;12.784;2024-03-29T04:37:05;94792.84;;;4.49
73894;BMP280;62699;50.534;12.784;2024-03-29T04:42:05;94807.63;;;4.45
73894;BMP280;62699;50.534;12.784;2024-03-29T04:47:07;94819.22;;;4.42
73894;BMP280;62699;50.534;12.784;2024-03-29T04:52:07;94827.72;;;4.51
73894;BMP280;62699;50.534;12.784;2024-03-29T04:57:07;94832.81;;;4.55
73894;BMP280;62699;50.534;12.784;2024-03-29T05:02:08;94836.69;;;4.65
73894;BMP280;62699;50.534;12.784;2024-03-29T05:07:09;94821.16;;;4.69
73894;BMP280;62699;50.534;12.784;2024-03-29T05:12:09;94818.28;;;4.67
73894;BMP280;62699;50.534;12.784;2024-03-29T05:17:09;94833.75;;;4.69
73894;BMP280;62699;50.534;12.784;2024-03-29T05:22:10;94835.00;;;4.73
73894;BMP280;62699;50.534;12.784;2024-03-29T05:27:11;94842.72;;;4.71
73894;BMP280;62699;50.534;12.784;2024-03-29T05:32:11;94823.84;;;4.69
73894;BMP280;62699;50.534;12.784;2024-03-29T05:37:12;94827.22;;;4.75
73894;BMP280;62699;50.534;12.784;2024-03-29T05:42:13;94844.16;;;4.94
73894;BMP280;62699;50.534;12.784;2024-03-29T05:47:13;94848.25;;;5.18
73894;BMP280;62699;50.534;12.784;2024-03-29T05:52:13;94839.13;;;5.54
73894;BMP280;62699;50.534;12.784;2024-03-29T05:57:14;94849.25;;;5.72
73894;BMP280;62699;50.534;12.784;2024-03-29T06:02:14;94860.06;;;5.97
73894;BMP280;62699;50.534;12.784;2024-03-29T06:07:14;94864.44;;;6.30
73894;BMP280;62699;50.534;12.784;2024-03-29T06:12:14;94877.53;;;6.69
73894;BMP280;62699;50.534;12.784;2024-03-29T06:17:15;94880.66;;;6.97
73894;BMP280;62699;50.534;12.784;2024-03-29T06:22:26;94874.59;;;7.21
73894;BMP280;62699;50.534;12.784;2024-03-29T06:27:35;94873.91;;;7.39
73894;BMP280;62699;50.534;12.784;2024-03-29T06:32:35;94869.81;;;7.57
73894;BMP280;62699;50.534;12.784;2024-03-29T06:37:37;94861.56;;;7.92
73894;BMP280;62699;50.534;12.784;2024-03-29T06:42:38;94837.19;;;8.27
73894;BMP280;62699;50.534;12.784;2024-03-29T06:47:39;94849.97;;;8.34
73894;BMP280;62699;50.534;12.784;2024-03-29T06:52:39;94843.69;;;8.32
73894;BMP280;62699;50.534;12.784;2024-03-29T06:57:39;94855.72;;;8.25
73894;BMP280;62699;50.534;12.784;2024-03-29T07:02:40;94869.72;;;8.18
73894;BMP280;62699;50.534;12.784;2024-03-29T07:07:47;94892.41;;;8.17
73894;BMP280;62699;50.534;12.784;2024-03-29T07:12:53;94889.91;;;8.19
73894;BMP280;62699;50.534;12.784;2024-03-29T07:17:54;94874.06;;;8.21
73894;BMP280;62699;50.534;12.784;2024-03-29T07:22:54;94898.91;;;8.22
73894;BMP280;62699;50.534;12.784;2024-03-29T07:27:54;94887.72;;;8.36
73894;BMP280;62699;50.534;12.784;2024-03-29T07:32:55;94886.72;;;8.40
73894;BMP280;62699;50.534;12.784;2024-03-29T07:37:55;94884.59;;;8.64
73894;BMP280;62699;50.534;12.784;2024-03-29T07:42:56;94884.13;;;8.79
73894;BMP280;62699;50.534;12.784;2024-03-29T07:47:56;94887.63;;;9.00
73894;BMP280;62699;50.534;12.784;2024-03-29T07:52:57;94875.88;;;9.30
73894;BMP280;62699;50.534;12.784;2024-03-29T07:57:57;94888.47;;;9.61
73894;BMP280;62699;50.534;12.784;2024-03-29T08:03:01;94884.63;;;9.70
73894;BMP280;62699;50.534;12.784;2024-03-29T08:08:02;94882.53;;;9.76
73894;BMP280;62699;50.534;12.784;2024-03-29T08:13:03;94870.81;;;9.86
73894;BMP280;62699;50.534;12.784;2024-03-29T08:18:04;94876.69;;;9.98
73894;BMP280;62699;50.534;12.784;2024-03-29T08:23:10;94873.53;;;10.07
73894;BMP280;62699;50.534;12.784;2024-03-29T08:28:11;94866.34;;;10.23
73894;BMP280;62699;50.534;12.784;2024-03-29T08:33:11;94865.09;;;10.44
73894;BMP280;62699;50.534;12.784;2024-03-29T08:38:12;94857.66;;;10.58
73894;BMP280;62699;50.534;12.784;2024-03-29T08:43:14;94849.56;;;10.79
73894;BMP280;62699;50.534;12.784;2024-03-29T08:48:15;94839.97;;;11.27
73894;BMP280;62699;50.534;12.784;2024-03-29T08:53:15;94850.47;;;11.61
73894;BMP280;62699;50.534;12.784;2024-03-29T08:58:15;94840.34;;;12.05
73894;BMP280;62699;50.534;12.784;2024-03-29T09:03:16;94838.72;;;12.32
73894;BMP280;62699;50.534;12.784;2024-03-29T09:08:19;94838.91;;;12.19
73894;BMP280;62699;50.534;12.784;2024-03-29T09:13:19;94820.16;;;11.90
73894;BMP280;62699;50.534;12.784;2024-03-29T09:18:20;94823.41;;;11.97
73894;BMP280;62699;50.534;12.784;2024-03-29T09:23:23;94833.69;;;12.13
73894;BMP280;62699;50.534;12.784;2024-03-29T09:28:25;94821.06;;;12.61
73894;BMP280;62699;50.534;12.784;2024-03-29T09:33:26;94820.34;;;12.76
73894;BMP280;62699;50.534;12.784;2024-03-29T09:38:27;94807.94;;;13.60
73894;BMP280;62699;50.534;12.784;2024-03-29T09:43:27;94800.63;;;13.95
73894;BMP280;62699;50.534;12.784;2024-03-29T09:48:28;94810.81;;;14.12
73894;BMP280;62699;50.534;12.784;2024-03-29T09:53:37;94796.59;;;14.04
73894;BMP280;62699;50.534;12.784;2024-03-29T09:58:38;94801.91;;;13.69
73894;BMP280;62699;50.534;12.784;2024-03-29T10:03:45;94800.13;;;13.64
73894;BMP280;62699;50.534;12.784;2024-03-29T10:08:48;94799.28;;;13.54
73894;BMP280;62699;50.534;12.784;2024-03-29T10:13:48;94807.16;;;13.35
73894;BMP280;62699;50.534;12.784;2024-03-29T10:18:49;94803.81;;;13.19
73894;BMP280;62699;50.534;12.784;2024-03-29T10:23:49;94811.56;;;13.15
73894;BMP280;62699;50.534;12.784;2024-03-29T10:28:51;94811.78;;;13.10
73894;BMP280;62699;50.534;12.784;2024-03-29T10:33:52;94814.16;;;12.91
73894;BMP280;62699;50.534;12.784;2024-03-29T10:38:54;94820.84;;;12.90
73894;BMP280;62699;50.534;12.784;2024-03-29T10:43:55;94834.72;;;12.78
73894;BMP280;62699;50.534;12.784;2024-03-29T10:48:57;94830.75;;;12.72
73894;BMP280;62699;50.534;12.784;2024-03-29T10:53:58;94827.91;;;12.77
73894;BMP280;62699;50.534;12.784;2024-03-29T10:59:02;94830.75;;;12.87
73894;BMP280;62699;50.534;12.784;2024-03-29T11:04:17;94825.41;;;13.12
73894;BMP280;62699;50.534;12.784;2024-03-29T11:09:20;94828.78;;;13.35
73894;BMP280;62699;50.534;12.784;2024-03-29T11:14:33;94832.25;;;13.60
73894;BMP280;62699;50.534;12.784;2024-03-29T11:19:35;94829.56;;;13.60
73894;BMP280;62699;50.534;12.784;2024-03-29T11:24:38;94836.91;;;13.67
73894;BMP280;62699;50.534;12.784;2024-03-29T11:29:41;94867.41;;;13.60
73894;BMP280;62699;50.534;12.784;2024-03-29T11:34:44;94872.75;;;13.36
73894;BMP280;62699;50.534;12.784;2024-03-29T11:39:48;94894.72;;;13.32
73894;BMP280;62699;50.534;12.784;2024-03-29T11:44:49;94874.88;;;13.37
73894;BMP280;62699;50.534;12.784;2024-03-29T11:49:56;94869.69;;;13.71
73894;BMP280;62699;50.534;12.784;2024-03-29T11:54:56;94873.22;;;13.81
73894;BMP280;62699;50.534;12.784;2024-03-29T11:59:58;94873.91;;;13.90
73894;BMP280;62699;50.534;12.784;2024-03-29T12:04:59;94877.03;;;14.11
73894;BMP280;62699;50.534;12.784;2024-03-29T12:09:59;94892.50;;;14.18
73894;BMP280;62699;50.534;12.784;2024-03-29T12:14:59;94909.09;;;14.64
73894;BMP280;62699;50.534;12.784;2024-03-29T12:20:00;94898.63;;;14.60
73894;BMP280;62699;50.534;12.784;2024-03-29T12:25:07;94878.81;;;14.58
73894;BMP280;62699;50.534;12.784;2024-03-29T12:30:08;94853.97;;;14.86
73894;BMP280;62699;50.534;12.784;2024-03-29T12:35:10;94801.25;;;15.14
73894;BMP280;62699;50.534;12.784;2024-03-29T12:40:10;94831.34;;;15.35
73894;BMP280;62699;50.534;12.784;2024-03-29T12:45:18;94852.06;;;14.96
73894;BMP280;62699;50.534;12.784;2024-03-29T12:50:25;94876.38;;;15.21
73894;BMP280;62699;50.534;12.784;2024-03-29T12:55:27;94882.84;;;15.35
73894;BMP280;62699;50.534;12.784;2024-03-29T13:00:31;94866.34;;;15.41
73894;BMP280;62699;50.534;12.784;2024-03-29T13:05:31;94841.63;;;15.10
73894;BMP280;62699;50.534;12.784;2024-03-29T13:10:36;94842.13;;;15.25
73894;BMP280;62699;50.534;12.784;2024-03-29T13:15:38;94843.53;;;15.17
73894;BMP280;62699;50.534;12.784;2024-03-29T13:20:38;94832.78;;;15.09
73894;BMP280;62699;50.534;12.784;2024-03-29T13:25:42;94811.09;;;15.36
73894;BMP280;62699;50.534;12.784;2024-03-29T13:30:43;94799.63;;;15.55
73894;BMP280;62699;50.534;12.784;2024-03-29T13:35:44;94803.53;;;16.17
73894;BMP280;62699;50.534;12.784;2024-03-29T13:40:45;94797.22;;;15.59
73894;BMP280;62699;50.534;12.784;2024-03-29T13:45:47;94802.44;;;15.47
73894;BMP280;62699;50.534;12.784;2024-03-29T13:50:47;94797.84;;;16.03
73894;BMP280;62699;50.534;12.784;2024-03-29T13:55:47;94802.00;;;16.14
73894;BMP280;62699;50.534;12.784;2024-03-29T14:00:50;94793.88;;;15.77
73894;BMP280;62699;50.534;12.784;2024-03-29T14:05:51;94774.22;;;16.06
73894;BMP280;62699;50.534;12.784;2024-03-29T14:10:51;94775.94;;;15.92
73894;BMP280;62699;50.534;12.784;2024-03-29T14:15:54;94762.69;;;16.05
73894;BMP280;62699;50.534;12.784;2024-03-29T14:20:55;94759.41;;;16.16
73894;BMP280;62699;50.534;12.784;2024-03-29T14:25:57;94745.97;;;16.09
73894;BMP280;62699;50.534;12.784;2024-03-29T14:30:57;94739.94;;;16.01
73894;BMP280;62699;50.534;12.784;2024-03-29T14:35:57;94743.81;;;15.98
73894;BMP280;62699;50.534;12.784;2024-03-29T14:40:58;94754.59;;;16.24
73894;BMP280;62699;50.534;12.784;2024-03-29T14:45:58;94751.69;;;15.94
73894;BMP280;62699;50.534;12.784;2024-03-29T14:50:59;94764.13;;;16.25
73894;BMP280;62699;50.534;12.784;2024-03-29T14:56:03;94768.72;;;16.23
73894;BMP280;62699;50.534;12.784;2024-03-29T15:01:03;94775.97;;;16.01
73894;BMP280;62699;50.534;12.784;2024-03-29T15:06:05;94785.53;;;16.02
73894;BMP280;62699;50.534;12.784;2024-03-29T15:11:05;94801.25;;;15.94
73894;BMP280;62699;50.534;12.784;2024-03-29T15:16:07;94804.81;;;16.06
73894;BMP280;62699;50.534;12.784;2024-03-29T15:21:07;94814.69;;;16.11
73894;BMP280;62699;50.534;12.784;2024-03-29T15:26:09;94806.16;;;16.15
73894;BMP280;62699;50.534;12.784;2024-03-29T15:36:11;94815.66;;;15.97
73894;BMP280;62699;50.534;12.784;2024-03-29T15:41:12;94816.13;;;16.12
73894;BMP280;62699;50.534;12.784;2024-03-29T15:46:14;94823.00;;;16.23
73894;BMP280;62699;50.534;12.784;2024-03-29T15:51:14;94832.84;;;16.18
73894;BMP280;62699;50.534;12.784;2024-03-29T15:56:16;94838.00;;;16.14
73894;BMP280;62699;50.534;12.784;2024-03-29T16:01:16;94847.31;;;16.21
73894;BMP280;62699;50.534;12.784;2024-03-29T16:06:19;94853.03;;;16.25
73894;BMP280;62699;50.534;12.784;2024-03-29T16:11:20;94858.13;;;16.11
73894;BMP280;62699;50.534;12.784;2024-03-29T16:16:20;94863.66;;;15.94
73894;BMP280;62699;50.534;12.784;2024-03-29T16:21:20;94863.28;;;15.81
73894;BMP280;62699;50.534;12.784;2024-03-29T16:26:21;94870.78;;;15.63
73894;BMP280;62699;50.534;12.784;2024-03-29T16:31:21;94871.69;;;15.48
73894;BMP280;62699;50.534;12.784;2024-03-29T16:36:21;94870.28;;;15.30
73894;BMP280;62699;50.534;12.784;2024-03-29T16:41:21;94874.38;;;15.21
73894;BMP280;62699;50.534;12.784;2024-03-29T16:46:22;94870.00;;;15.09
73894;BMP280;62699;50.534;12.784;2024-03-29T16:51:22;94870.16;;;14.94
73894;BMP280;62699;50.534;12.784;2024-03-29T16:56:23;94867.84;;;14.73
73894;BMP280;62699;50.534;12.784;2024-03-29T17:01:24;94869.78;;;14.55
73894;BMP280;62699;50.534;12.784;2024-03-29T17:06:24;94867.69;;;14.29
73894;BMP280;62699;50.534;12.784;2024-03-29T17:11:24;94863.44;;;13.94
73894;BMP280;62699;50.534;12.784;2024-03-29T17:16:25;94868.47;;;13.57
73894;BMP280;62699;50.534;12.784;2024-03-29T17:21:25;94853.69;;;13.18
73894;BMP280;62699;50.534;12.784;2024-03-29T17:26:25;94860.25;;;12.85
73894;BMP280;62699;50.534;12.784;2024-03-29T17:31:26;94859.94;;;12.51
73894;BMP280;62699;50.534;12.784;2024-03-29T17:36:26;94856.34;;;12.18
73894;BMP280;62699;50.534;12.784;2024-03-29T17:41:28;94855.94;;;11.91
73894;BMP280;62699;50.534;12.784;2024-03-29T17:46:28;94851.94;;;11.69
73894;BMP280;62699;50.534;12.784;2024-03-29T17:51:28;94858.00;;;11.55
73894;BMP280;62699;50.534;12.784;2024-03-29T17:56:29;94850.97;;;11.44
73894;BMP280;62699;50.534;12.784;2024-03-29T18:01:29;94838.56;;;11.41
73894;BMP280;62699;50.534;12.784;2024-03-29T18:06:29;94836.91;;;11.30
73894;BMP280;62699;50.534;12.784;2024-03-29T18:11:31;94843.69;;;11.24
73894;BMP280;62699;50.534;12.784;2024-03-29T18:16:32;94858.59;;;11.17
73894;BMP280;62699;50.534;12.784;2024-03-29T18:21:59;94854.22;;;11.07
73894;BMP280;62699;50.534;12.784;2024-03-29T18:26:59;94844.50;;;11.04
73894;BMP280;62699;50.534;12.784;2024-03-29T18:31:59;94844.63;;;10.98
73894;BMP280;62699;50.534;12.784;2024-03-29T18:37:00;94842.25;;;10.87
73894;BMP280;62699;50.534;12.784;2024-03-29T18:42:00;94843.94;;;10.69
73894;BMP280;62699;50.534;12.784;2024-03-29T18:47:00;94847.75;;;10.53
73894;BMP280;62699;50.534;12.784;2024-03-29T18:52:02;94841.22;;;10.41
73894;BMP280;62699;50.534;12.784;2024-03-29T18:57:03;94848.44;;;10.46
73894;BMP280;62699;50.534;12.784;2024-03-29T19:02:05;94855.53;;;10.36
73894;BMP280;62699;50.534;12.784;2024-03-29T19:07:05;94850.22;;;10.23
73894;BMP280;62699;50.534;12.784;2024-03-29T19:12:06;94855.63;;;10.09
73894;BMP280;62699;50.534;12.784;2024-03-29T19:17:06;94850.53;;;9.98
73894;BMP280;62699;50.534;12.784;2024-03-29T19:22:08;94852.41;;;9.90
73894;BMP280;62699;50.534;12.784;2024-03-29T19:27:09;94852.94;;;9.89
73894;BMP280;62699;50.534;12.784;2024-03-29T19:32:09;94849.75;;;9.77
73894;BMP280;62699;50.534;12.784;2024-03-29T19:37:11;94859.50;;;9.67
73894;BMP280;62699;50.534;12.784;2024-03-29T19:42:12;94864.50;;;9.63
73894;BMP280;62699;50.534;12.784;2024-03-29T19:47:12;94861.53;;;9.53
73894;BMP280;62699;50.534;12.784;2024-03-29T19:52:13;94861.22;;;9.44
73894;BMP280;62699;50.534;12.784;2024-03-29T19:57:13;94858.75;;;9.33
73894;BMP280;62699;50.534;12.784;2024-03-29T20:02:13;94859.69;;;9.22
73894;BMP280;62699;50.534;12.784;2024-03-29T20:07:13;94851.31;;;9.12
73894;BMP280;62699;50.534;12.784;2024-03-29T20:12:14;94843.38;;;9.07
73894;BMP280;62699;50.534;12.784;2024-03-29T20:17:14;94848.00;;;9.19
73894;BMP280;62699;50.534;12.784;2024-03-29T20:22:14;94835.63;;;9.16
73894;BMP280;62699;50.534;12.784;2024-03-29T20:27:15;94851.72;;;9.16
73894;BMP280;62699;50.534;12.784;2024-03-29T20:32:15;94847.19;;;9.25
73894;BMP280;62699;50.534;12.784;2024-03-29T20:37:15;94852.75;;;9.27
73894;BMP280;62699;50.534;12.784;2024-03-29T20:42:17;94843.38;;;9.33
73894;BMP280;62699;50.534;12.784;2024-03-29T20:47:19;94850.91;;;9.21
73894;BMP280;62699;50.534;12.784;2024-03-29T20:52:19;94849.88;;;9.11
73894;BMP280;62699;50.534;12.784;2024-03-29T20:57:23;94855.88;;;9.04
73894;BMP280;62699;50.534;12.784;2024-03-29T21:02:24;94849.66;;;8.96
73894;BMP280;62699;50.534;12.784;2024-03-29T21:07:43;94860.31;;;8.89
73894;BMP280;62699;50.534;12.784;2024-03-29T21:12:46;94860.59;;;8.85
73894;BMP280;62699;50.534;12.784;2024-03-29T21:17:47;94854.50;;;8.85
73894;BMP280;62699;50.534;12.784;2024-03-29T21:22:47;94853.56;;;8.82
73894;BMP280;62699;50.534;12.784;2024-03-29T21:27:47;94863.31;;;8.98
73894;BMP280;62699;50.534;12.784;2024-03-29T21:32:48;94858.94;;;8.95
73894;BMP280;62699;50.534;12.784;2024-03-29T21:37:49;94868.53;;;8.91
73894;BMP280;62699;50.534;12.784;2024-03-29T21:42:49;94862.53;;;8.85
73894;BMP280;62699;50.534;12.784;2024-03-29T21:47:49;94862.03;;;8.86
73894;BMP280;62699;50.534;12.784;2024-03-29T21:52:50;94857.50;;;8.81
73894;BMP280;62699;50.534;12.784;2024-03-29T21:57:50;94857.06;;;8.77
73894;BMP280;62699;50.534;12.784;2024-03-29T22:02:52;94865.94;;;8.72
73894;BMP280;62699;50.534;12.784;2024-03-29T22:07:53;94852.41;;;8.64
73894;BMP280;62699;50.534;12.784;2024-03-29T22:12:53;94850.03;;;8.61
73894;BMP280;62699;50.534;12.784;2024-03-29T22:17:53;94850.97;;;8.50
73894;BMP280;62699;50.534;12.784;2024-03-29T22:22:53;94849.19;;;8.40
73894;BMP280;62699;50.534;12.784;2024-03-29T22:27:53;94849.38;;;8.42
73894;BMP280;62699;50.534;12.784;2024-03-29T22:32:54;94849.47;;;8.36
73894;BMP280;62699;50.534;12.784;2024-03-29T22:37:56;94855.44;;;8.29
73894;BMP280;62699;50.534;12.784;2024-03-29T22:42:56;94856.75;;;8.22
73894;BMP280;62699;50.534;12.784;2024-03-29T22:47:57;94853.41;;;8.16
73894;BMP280;62699;50.534;12.784;2024-03-29T22:52:57;94849.72;;;8.19
73894;BMP280;62699;50.534;12.784;2024-03-29T22:57:57;94846.41;;;8.13
73894;BMP280;62699;50.534;12.784;2024-03-29T23:02:58;94856.69;;;8.09
73894;BMP280;62699;50.534;12.784;2024-03-29T23:07:59;94852.13;;;8.04
73894;BMP280;62699;50.534;12.784;2024-03-29T23:13:03;94860.41;;;8.06
73894;BMP280;62699;50.534;12.784;2024-03-29T23:18:03;94868.94;;;8.05
73894;BMP280;62699;50.534;12.784;2024-03-29T23:23:04;94867.22;;;8.07
73894;BMP280;62699;50.534;12.784;2024-03-29T23:28:05;94863.31;;;8.08
73894;BMP280;62699;50.534;12.784;2024-03-29T23:33:05;94860.97;;;7.99
73894;BMP280;62699;50.534;12.784;2024-03-29T23:38:06;94864.91;;;7.98
73894;BMP280;62699;50.534;12.784;2024-03-29T23:43:08;94855.19;;;7.95
73894;BMP280;62699;50.534;12.784;2024-03-29T23:48:08;94851.84;;;7.89
73894;BMP280;62699;50.534;12.784;2024-03-29T23:53:09;94856.28;;;7.86
73894;BMP280;62699;50.534;12.784;2024-03-29T23:58:09;94851.56;;;7.74
